Arcadia Highway — 3FQT4 — position and weather

sailwx.info

Track history (hours):
 
Tides and Currents Weather Stations Pressure Air Temp Water Temp Dewpoint Dewpoint Depression Visibility Wind Speed Wind Dir Waves Ship Positions

Arcadia Highway

Last reported at 2016-Sep-15 04:32 UTC. Time now 2016-Sep-27 08:45 UTC.
Position N 35°28' E 139°41'.
Warning: this ship's position is 12 days out of date.

Length 179 m; draft 7.5 m.

Type: Cargo ship. MMSI: 354342000.

Date/timePositionNaut miles runAvg speedWind from/ knotsBaromVisibWave heightAir tempDewpointWater temp
2016-Sep-15 04:32N 35°28' E 139°41'0 0.0
2016-Sep-15 03:32N 35°28' E 139°41'0 0.0
2016-Sep-15 01:32N 35°28' E 139°41'0 0.0
2016-Sep-14 22:32N 35°28' E 139°41'3 3.2
2016-Sep-14 21:33N 35°26' E 139°44'4110.2
2016-Sep-14 17:33N 34°46' E 139°50'1515.0
2016-Sep-14 16:33N 34°50' E 140°08'93 4.7
2016-Sep-13 20:31N 36°17' E 140°49'  
2016-Sep-10 16:30N 36°11' E 142°51'48 1.4
2016-Sep-09 06:33N 36°23' E 141°53'  
2016-Sep-05 23:29N 36°11' E 141°24'1 1.0
2016-Sep-05 22:08N 36°10' E 141°25'1 0.9
2016-Sep-05 21:32N 36°10' E 141°26'1 1.2
2016-Sep-05 20:33N 36°10' E 141°27'1 1.0
2016-Sep-05 19:33N 36°10' E 141°29'1 0.7
2016-Sep-05 18:30N 36°10' E 141°30'0 0.4
2016-Sep-05 17:31N 36°10' E 141°30'0 0.3
2016-Sep-05 16:33N 36°10' E 141°30'0 0.3
2016-Sep-05 15:33N 36°10' E 141°31'0 0.4
2016-Sep-05 14:32N 36°10' E 141°31'1 0.7
2016-Sep-05 13:32N 36°10' E 141°31'1413.6
2016-Sep-05 12:31N 36°12' E 141°13'1211.3
2016-Sep-05 11:30N 36°22' E 141°08'  
Track history (hours):
 
Tides and Currents Weather Stations Pressure Air Temp Water Temp Dewpoint Dewpoint Depression Visibility Wind Speed Wind Dir Waves Ship Positions

Arcadia Highway

Last reported at 2016-Sep-15 04:32 UTC. Time now 2016-Sep-27 08:45 UTC.
Position N 35°28' E 139°41'.
Warning: this ship's position is 12 days out of date.

Length 179 m; draft 7.5 m.

Type: Cargo ship. MMSI: 354342000.

Date/timePositionNaut miles runAvg speedWind from/ knotsBaromVisibWave heightAir tempDewpointWater temp
2016-Sep-15 04:32N 35°28' E 139°41'0 0.0
2016-Sep-15 03:32N 35°28' E 139°41'0 0.0
2016-Sep-15 01:32N 35°28' E 139°41'0 0.0
2016-Sep-14 22:32N 35°28' E 139°41'3 3.2
2016-Sep-14 21:33N 35°26' E 139°44'4110.2
2016-Sep-14 17:33N 34°46' E 139°50'1515.0
2016-Sep-14 16:33N 34°50' E 140°08'93 4.7
2016-Sep-13 20:31N 36°17' E 140°49'  
2016-Sep-10 16:30N 36°11' E 142°51'48 1.4
2016-Sep-09 06:33N 36°23' E 141°53'  
2016-Sep-05 23:29N 36°11' E 141°24'1 1.0
2016-Sep-05 22:08N 36°10' E 141°25'1 0.9
2016-Sep-05 21:32N 36°10' E 141°26'1 1.2
2016-Sep-05 20:33N 36°10' E 141°27'1 1.0
2016-Sep-05 19:33N 36°10' E 141°29'1 0.7
2016-Sep-05 18:30N 36°10' E 141°30'0 0.4
2016-Sep-05 17:31N 36°10' E 141°30'0 0.3
2016-Sep-05 16:33N 36°10' E 141°30'0 0.3
2016-Sep-05 15:33N 36°10' E 141°31'0 0.4
2016-Sep-05 14:32N 36°10' E 141°31'1 0.7
2016-Sep-05 13:32N 36°10' E 141°31'1413.6
2016-Sep-05 12:31N 36°12' E 141°13'1211.3
2016-Sep-05 11:30N 36°22' E 141°08'  

Dump ship's entire track history